Time;durP1;ratioP1;P1;durP2;ratioP2;P2;SDS_P1;SDS_P2;PMS_P1;PMS_P2;Temp;Humidity;BMP_temperature;BMP_pressure;BME280_temperature;BME280_humidity;BME280_pressure;Samples;Min_cycle;Max_cycle;Signal;HPM_P1;HPM_P2
2023/07/06 00:01:28;;;;;;;9.55;6.78;;;;;;;20.10;95.07;97618.84;10325717;28;20157;-51
2023/07/06 00:06:27;;;;;;;7.80;5.68;;;;;;;20.07;94.50;97610.13;10325835;28;20112;-48
2023/07/06 00:11:33;;;;;;;8.93;6.55;;;;;;;20.14;94.34;97605.47;10324861;28;20113;-48
2023/07/06 00:16:32;;;;;;;8.07;5.97;;;;;;;20.11;94.10;97604.72;10325405;28;20096;-51
2023/07/06 00:21:31;;;;;;;7.45;5.82;;;;;;;20.03;94.22;97607.69;10324884;28;20132;-52
2023/07/06 00:26:30;;;;;;;9.85;6.18;;;;;;;20.10;94.48;97603.88;10324623;28;20427;-51
2023/07/06 00:31:32;;;;;;;8.90;6.60;;;;;;;20.12;94.72;97606.44;10323722;28;20047;-51
2023/07/06 00:36:35;;;;;;;9.20;7.00;;;;;;;20.12;95.16;97595.88;10325070;28;20500;-51
2023/07/06 00:41:33;;;;;;;9.95;7.03;;;;;;;20.22;95.10;97608.63;10324636;28;20087;-51
2023/07/06 00:46:39;;;;;;;8.98;7.20;;;;;;;20.30;95.38;97597.75;10324080;28;20112;-52
2023/07/06 00:51:40;;;;;;;10.38;7.90;;;;;;;20.27;95.50;97588.19;10325283;28;20069;-52
2023/07/06 00:56:42;;;;;;;10.15;6.93;;;;;;;20.24;95.56;97571.69;10323536;28;20076;-49
2023/07/06 01:01:45;;;;;;;10.30;6.57;;;;;;;20.27;95.66;97569.75;10324360;28;20113;-50
2023/07/06 01:06:49;;;;;;;9.23;6.43;;;;;;;20.29;95.35;97567.06;10324157;28;20076;-52
2023/07/06 01:11:49;;;;;;;8.20;6.53;;;;;;;20.44;95.34;97587.50;10323340;28;20509;-50
2023/07/06 01:17:15;;;;;;;10.93;7.70;;;;;;;20.42;95.00;97577.94;10324699;28;20076;-48
2023/07/06 01:22:48;;;;;;;10.73;7.28;;;;;;;20.32;95.26;97573.97;10326711;28;20077;-49
2023/07/06 01:28:05;;;;;;;11.55;6.95;;;;;;;20.29;95.01;97567.91;10327489;28;20069;-51
2023/07/06 01:33:26;;;;;;;11.35;7.20;;;;;;;20.23;95.28;97562.91;10326609;28;20068;-51
2023/07/06 01:38:25;;;;;;;12.13;7.15;;;;;;;20.24;95.27;97563.78;10327401;28;20084;-51
2023/07/06 01:43:25;;;;;;;11.13;9.25;;;;;;;20.19;95.30;97549.91;10333436;28;20037;-51
2023/07/06 01:48:24;;;;;;;12.60;9.90;;;;;;;20.15;95.35;97549.22;10333588;28;20060;-51
2023/07/06 01:53:42;;;;;;;14.77;11.00;;;;;;;20.10;95.31;97548.56;10333186;28;20442;-49
2023/07/06 01:58:47;;;;;;;14.02;10.82;;;;;;;20.03;95.72;97547.09;10333777;28;20513;-50
2023/07/06 02:03:50;;;;;;;15.27;11.65;;;;;;;19.95;96.02;97541.28;10333276;28;20080;-51
2023/07/06 02:08:49;;;;;;;16.92;11.73;;;;;;;19.86;95.92;97543.41;10332870;28;20065;-50
2023/07/06 02:13:48;;;;;;;16.35;11.27;;;;;;;19.79;96.09;97531.41;10333542;28;20073;-52
2023/07/06 02:18:47;;;;;;;16.45;10.63;;;;;;;19.55;96.85;97527.13;10328896;28;20385;-50
2023/07/06 02:23:47;;;;;;;14.05;10.75;;;;;;;19.27;98.52;97532.63;10329108;28;20033;-51
2023/07/06 02:28:46;;;;;;;14.27;9.70;;;;;;;19.28;98.33;97523.84;10329423;28;20486;-49
2023/07/06 02:33:45;;;;;;;15.68;10.25;;;;;;;19.16;99.04;97510.25;10328601;28;20492;-49
2023/07/06 02:38:45;;;;;;;15.73;10.15;;;;;;;19.00;100.00;97514.41;10328229;28;20029;-50
2023/07/06 02:43:45;;;;;;;19.05;11.10;;;;;;;18.92;100.00;97498.03;10328779;28;20520;-52
2023/07/06 02:48:44;;;;;;;16.48;11.68;;;;;;;18.99;99.74;97496.88;10328497;28;20132;-49
2023/07/06 02:53:43;;;;;;;18.92;12.30;;;;;;;19.01;99.54;97481.91;10326369;28;20123;-48
2023/07/06 02:58:42;;;;;;;18.98;13.13;;;;;;;19.05;99.25;97488.78;10328213;28;20120;-52
2023/07/06 03:03:41;;;;;;;19.98;12.90;;;;;;;19.11;99.25;97490.28;10328272;28;20045;-49
2023/07/06 03:08:40;;;;;;;20.40;13.55;;;;;;;19.15;99.26;97486.63;10327060;28;20029;-50
2023/07/06 03:13:39;;;;;;;20.02;14.13;;;;;;;19.18;99.42;97478.59;10327960;28;20112;-50
2023/07/06 03:18:40;;;;;;;20.48;13.65;;;;;;;19.18;99.22;97474.22;10328327;28;20127;-49
2023/07/06 03:23:39;;;;;;;20.67;14.05;;;;;;;19.31;99.37;97482.47;10330397;28;20077;-52
2023/07/06 03:28:38;;;;;;;22.58;15.70;;;;;;;19.35;99.59;97473.53;10330165;28;20484;-49
2023/07/06 03:33:41;;;;;;;20.48;14.63;;;;;;;19.47;99.58;97469.53;10329998;28;20065;-52
2023/07/06 03:38:40;;;;;;;17.67;13.88;;;;;;;19.60;99.58;97462.88;10328028;28;20073;-51
2023/07/06 03:43:39;;;;;;;18.58;13.68;;;;;;;19.75;98.80;97466.63;10329007;28;20059;-49
2023/07/06 03:48:40;;;;;;;17.45;13.80;;;;;;;19.85;98.44;97461.81;10330105;28;20509;-49
2023/07/06 03:53:39;;;;;;;19.77;12.40;;;;;;;19.93;97.66;97465.00;10328899;28;20072;-50
2023/07/06 03:58:38;;;;;;;18.20;12.93;;;;;;;20.02;97.42;97463.72;10328798;28;20120;-51
2023/07/06 04:03:37;;;;;;;17.50;11.93;;;;;;;20.12;97.51;97459.78;10328436;28;20108;-48
2023/07/06 04:08:37;;;;;;;15.35;11.77;;;;;;;20.27;96.91;97469.63;10328612;28;20041;-49
2023/07/06 04:13:36;;;;;;;16.08;12.05;;;;;;;20.31;96.96;97485.31;10328622;28;20072;-50
2023/07/06 04:18:35;;;;;;;17.13;11.70;;;;;;;20.42;96.63;97483.06;10325271;28;20108;-51
2023/07/06 04:23:35;;;;;;;15.77;12.18;;;;;;;20.53;96.23;97490.50;10324809;28;20080;-49
2023/07/06 04:28:38;;;;;;;14.65;11.93;;;;;;;20.68;95.53;97498.56;10325102;28;20077;-51
2023/07/06 04:33:37;;;;;;;14.32;11.35;;;;;;;20.78;94.90;97495.50;10324320;28;20520;-51
2023/07/06 04:38:36;;;;;;;19.52;12.45;;;;;;;20.88;94.60;97487.09;10324617;28;20072;-49
2023/07/06 04:43:36;;;;;;;17.35;11.18;;;;;;;21.01;93.73;97492.66;10323550;28;20042;-51
2023/07/06 04:48:36;;;;;;;14.57;10.93;;;;;;;21.17;92.84;97482.19;10324422;28;20531;-51
2023/07/06 04:53:37;;;;;;;14.40;10.52;;;;;;;21.27;91.74;97494.06;10324012;28;20491;-50
2023/07/06 04:58:38;;;;;;;13.55;9.65;;;;;;;21.25;90.81;97495.09;10319954;28;20129;-50
2023/07/06 05:03:38;;;;;;;15.15;11.10;;;;;;;21.21;90.91;97514.63;10324682;28;20120;-51
2023/07/06 05:08:38;;;;;;;12.15;10.05;;;;;;;21.14;90.06;97517.50;10323156;28;20096;-50
2023/07/06 05:13:37;;;;;;;11.95;9.68;;;;;;;21.01;90.69;97528.72;10321999;28;20069;-51
2023/07/06 05:18:36;;;;;;;13.52;9.07;;;;;;;21.17;90.62;97531.50;10330993;28;20053;-50
2023/07/06 05:23:35;;;;;;;14.23;9.57;;;;;;;21.30;90.40;97530.03;10330851;28;20116;-51
2023/07/06 05:28:34;;;;;;;15.52;10.05;;;;;;;21.37;90.27;97534.06;10331052;28;20120;-50
2023/07/06 05:33:33;;;;;;;13.75;10.38;;;;;;;21.41;89.77;97540.91;10327208;28;20080;-51
2023/07/06 05:38:32;;;;;;;13.13;9.02;;;;;;;21.36;88.99;97529.75;10328828;28;20136;-52
2023/07/06 05:43:31;;;;;;;11.60;9.15;;;;;;;21.43;88.16;97544.34;10330125;28;20041;-51
2023/07/06 05:48:30;;;;;;;12.45;9.23;;;;;;;21.51;88.46;97544.81;10330923;28;20045;-48
2023/07/06 05:53:29;;;;;;;15.52;11.23;;;;;;;21.53;89.18;97558.81;10327171;28;20076;-51
2023/07/06 05:58:28;;;;;;;12.23;10.00;;;;;;;21.35;91.09;97562.31;10330253;28;20112;-49
2023/07/06 06:03:28;;;;;;;12.75;10.45;;;;;;;21.24;91.14;97573.41;10330356;28;20037;-50
2023/07/06 06:08:28;;;;;;;15.23;11.00;;;;;;;21.44;91.49;97564.53;10329951;28;20460;-53
2023/07/06 06:13:27;;;;;;;16.95;11.73;;;;;;;21.71;91.22;97567.63;10328414;28;20088;-51
2023/07/06 06:18:26;;;;;;;14.38;11.05;;;;;;;21.55;90.91;97579.88;10329440;28;20075;-50
2023/07/06 06:23:25;;;;;;;18.23;11.68;;;;;;;21.41;90.51;97571.75;10328274;28;20340;-50
2023/07/06 06:28:25;;;;;;;19.00;11.68;;;;;;;21.74;88.91;97567.47;10327516;28;20068;-50
2023/07/06 06:33:24;;;;;;;14.23;11.48;;;;;;;22.02;87.43;97570.56;10328534;28;20096;-49
2023/07/06 06:38:23;;;;;;;12.48;9.20;;;;;;;22.21;84.29;97550.19;10328478;28;20129;-49
2023/07/06 06:43:23;;;;;;;11.88;8.52;;;;;;;22.72;83.67;97566.06;10327757;28;20124;-51
2023/07/06 06:48:22;;;;;;;12.25;8.73;;;;;;;22.95;81.52;97562.19;10328220;28;20073;-50
2023/07/06 06:53:21;;;;;;;9.15;7.65;;;;;;;23.30;79.56;97572.66;10327962;28;20030;-49
2023/07/06 06:58:24;;;;;;;9.30;7.57;;;;;;;23.56;77.90;97568.56;10327405;28;20035;-50
2023/07/06 07:03:23;;;;;;;9.90;6.55;;;;;;;23.79;74.85;97556.66;10325986;28;20521;-48
2023/07/06 07:08:22;;;;;;;9.07;7.28;;;;;;;23.50;74.40;97567.13;10327614;28;20087;-50
2023/07/06 07:13:21;;;;;;;10.38;7.45;;;;;;;23.40;76.88;97560.63;10326850;28;20109;-49
2023/07/06 07:18:21;;;;;;;7.97;6.70;;;;;;;23.24;74.93;97510.31;10325440;28;20035;-50
2023/07/06 07:23:22;;;;;;;10.27;7.70;;;;;;;23.74;75.35;97561.38;10327501;28;20469;-51
2023/07/06 07:28:21;;;;;;;10.10;7.28;;;;;;;23.93;75.02;97566.47;10328757;28;20104;-49
2023/07/06 07:33:20;;;;;;;9.68;6.88;;;;;;;24.18;72.79;97566.78;10325302;28;20364;-51
2023/07/06 07:38:19;;;;;;;8.32;6.57;;;;;;;23.99;70.75;97564.31;10320257;28;20029;-49
2023/07/06 07:43:18;;;;;;;9.13;6.85;;;;;;;24.02;71.25;97561.47;10321737;28;20132;-51
2023/07/06 07:48:17;;;;;;;9.02;6.65;;;;;;;24.17;69.17;97567.69;10320421;28;20867;-48
2023/07/06 07:53:18;;;;;;;9.73;6.75;;;;;;;24.17;69.74;97562.41;10323720;28;20535;-50
2023/07/06 07:58:16;;;;;;;10.48;7.20;;;;;;;24.25;70.30;97567.28;10326512;28;20556;-51
2023/07/06 08:03:17;;;;;;;9.65;6.68;;;;;;;24.37;68.40;97565.69;10324681;28;20025;-52
2023/07/06 08:08:15;;;;;;;7.25;5.80;;;;;;;24.51;67.30;97568.34;10322776;28;20064;-50
2023/07/06 08:13:14;;;;;;;7.95;6.75;;;;;;;24.78;66.47;97568.47;10325212;28;20021;-51
2023/07/06 08:18:15;;;;;;;9.02;7.32;;;;;;;24.77;66.45;97564.09;10325539;28;20132;-51
2023/07/06 08:23:16;;;;;;;9.88;7.00;;;;;;;25.20;66.29;97556.16;10326196;28;20141;-50
2023/07/06 08:28:15;;;;;;;10.18;6.32;;;;;;;24.89;64.76;97546.59;10327760;28;20076;-51
2023/07/06 08:33:15;;;;;;;7.57;6.28;;;;;;;24.95;65.25;97551.53;10327190;28;20420;-52
2023/07/06 08:38:14;;;;;;;10.60;7.00;;;;;;;24.86;65.88;97558.25;10327528;28;20115;-52
2023/07/06 08:43:22;;;;;;;8.13;6.63;;;;;;;24.73;66.59;97546.69;10325369;28;20083;-50
2023/07/06 08:48:26;;;;;;;8.57;6.22;;;;;;;24.89;64.40;97551.91;10324980;28;20124;-50
2023/07/06 08:53:31;;;;;;;8.77;6.30;;;;;;;24.75;63.98;97550.06;10325650;28;20069;-50
2023/07/06 08:58:32;;;;;;;8.13;6.60;;;;;;;24.74;64.47;97547.53;10325649;28;20147;-51
2023/07/06 09:03:41;;;;;;;8.13;6.75;;;;;;;24.97;64.24;97546.13;10319905;28;20136;-51
2023/07/06 09:08:45;;;;;;;10.27;6.20;;;;;;;25.09;63.45;97548.00;10321247;28;20121;-50
2023/07/06 09:13:47;;;;;;;7.63;6.57;;;;;;;25.15;62.15;97539.63;10319579;28;20056;-51
2023/07/06 09:18:47;;;;;;;7.20;6.32;;;;;;;25.08;62.29;97540.97;10319265;28;20077;-51
2023/07/06 09:23:47;;;;;;;10.32;6.30;;;;;;;25.21;62.59;97538.41;10319550;28;20128;-52
2023/07/06 09:28:46;;;;;;;8.88;6.65;;;;;;;25.23;63.89;97542.69;10323385;28;20069;-52
2023/07/06 09:33:50;;;;;;;8.23;6.22;;;;;;;25.27;61.48;97544.19;10326302;28;20025;-52
2023/07/06 09:38:50;;;;;;;10.27;6.53;;;;;;;25.46;61.05;97529.72;10325135;28;20539;-52
2023/07/06 09:43:57;;;;;;;8.65;5.95;;;;;;;25.54;61.61;97530.09;10324475;28;20072;-51
2023/07/06 09:48:56;;;;;;;9.00;5.95;;;;;;;25.88;61.54;97535.84;10319933;28;20072;-51
2023/07/06 09:54:06;;;;;;;8.25;6.72;;;;;;;26.05;61.25;97519.59;10319334;28;20120;-52
2023/07/06 09:59:06;;;;;;;7.43;6.28;;;;;;;26.26;60.00;97503.19;10320734;28;20073;-51
2023/07/06 10:04:46;;;;;;;7.07;6.22;;;;;;;26.38;59.72;97523.63;10325972;28;20128;-50
2023/07/06 10:10:20;;;;;;;6.82;5.88;;;;;;;26.33;58.72;97515.94;10332331;28;20077;-49
2023/07/06 10:15:33;;;;;;;8.00;5.97;;;;;;;26.31;58.44;97517.00;10331773;28;20500;-50
2023/07/06 10:20:56;;;;;;;9.25;5.70;;;;;;;26.45;58.13;97500.94;10331234;28;20493;-50
2023/07/06 10:25:56;;;;;;;8.25;6.43;;;;;;;26.86;57.42;97491.91;10330419;28;20152;-50
2023/07/06 10:30:57;;;;;;;7.50;5.65;;;;;;;27.44;56.85;97491.28;10333057;28;20061;-50
2023/07/06 10:35:58;;;;;;;7.90;5.80;;;;;;;27.83;56.73;97472.31;10332376;28;20464;-51
2023/07/06 10:41:12;;;;;;;9.77;6.85;;;;;;;28.02;53.29;97482.44;10332276;28;20080;-52
2023/07/06 10:46:32;;;;;;;10.15;5.85;;;;;;;28.58;51.81;97487.03;10330741;28;20076;-50
2023/07/06 10:51:55;;;;;;;9.23;5.32;;;;;;;29.16;50.45;97476.22;10332694;28;20465;-50
2023/07/06 10:57:10;;;;;;;7.65;5.72;;;;;;;28.78;48.35;97479.31;10330710;28;20120;-49
2023/07/06 11:02:24;;;;;;;9.60;5.32;;;;;;;28.92;49.37;97473.69;10330824;28;20129;-51
2023/07/06 11:07:52;;;;;;;6.55;4.78;;;;;;;29.36;47.64;97474.63;10330116;28;20179;-50
2023/07/06 11:13:01;;;;;;;6.22;5.53;;;;;;;29.35;47.04;97478.28;10329967;28;20480;-51
2023/07/06 11:18:24;;;;;;;8.27;5.40;;;;;;;29.19;47.22;97473.31;10329927;28;20069;-51
2023/07/06 11:23:54;;;;;;;6.75;5.05;;;;;;;28.89;46.98;97455.25;10321739;28;20116;-51
2023/07/06 11:28:53;;;;;;;7.65;5.50;;;;;;;28.87;47.76;97446.50;10325876;28;20076;-50
2023/07/06 11:34:07;;;;;;;5.97;5.15;;;;;;;28.49;47.68;97450.41;10329441;28;20483;-49
2023/07/06 11:39:37;;;;;;;7.88;5.10;;;;;;;28.41;47.91;97452.84;10327896;28;20073;-49
2023/07/06 11:44:47;;;;;;;6.82;5.45;;;;;;;28.95;47.58;97440.56;10328165;28;20116;-49
2023/07/06 11:49:52;;;;;;;8.27;5.57;;;;;;;29.22;47.58;97451.66;10328496;28;20063;-52
2023/07/06 12:05:25;;;;;;;6.05;5.38;;;;;;;28.61;46.98;97457.44;10329175;28;20076;-50
2023/07/06 12:10:25;;;;;;;7.20;5.50;;;;;;;28.81;49.14;97463.06;10323124;28;20457;-52
2023/07/06 12:15:24;;;;;;;6.30;5.60;;;;;;;29.02;48.66;97458.66;10325454;28;20069;-53
2023/07/06 12:20:25;;;;;;;6.68;5.63;;;;;;;28.95;49.52;97438.75;10326661;28;20128;-51
2023/07/06 12:25:27;;;;;;;7.68;5.95;;;;;;;29.41;49.09;97461.72;10326822;28;20064;-49
2023/07/06 12:30:33;;;;;;;7.18;5.22;;;;;;;29.62;49.68;97450.22;10326612;28;20057;-52
2023/07/06 12:35:33;;;;;;;6.55;5.15;;;;;;;30.45;48.00;97467.31;10327737;28;20073;-52
2023/07/06 12:40:34;;;;;;;8.30;6.03;;;;;;;31.16;46.84;97446.72;10327647;28;20120;-54
2023/07/06 12:45:33;;;;;;;7.07;5.65;;;;;;;31.65;43.93;97459.38;10325823;28;20065;-51
2023/07/06 12:50:39;;;;;;;7.32;5.57;;;;;;;32.26;45.01;97450.97;10327310;28;20093;-51
2023/07/06 12:55:44;;;;;;;7.65;5.70;;;;;;;32.82;42.69;97450.09;10326205;28;20148;-52
2023/07/06 13:00:48;;;;;;;7.57;4.95;;;;;;;32.62;39.75;97451.16;10326550;28;20073;-51
2023/07/06 13:05:55;;;;;;;5.93;5.15;;;;;;;31.82;39.88;97453.28;10316371;28;20105;-50
2023/07/06 13:11:03;;;;;;;6.67;5.40;;;;;;;31.40;42.39;97442.78;10319325;28;20116;-51
2023/07/06 13:16:08;;;;;;;7.53;5.32;;;;;;;31.45;42.54;97437.88;10323091;28;20068;-52
2023/07/06 13:21:14;;;;;;;6.38;5.57;;;;;;;31.25;41.47;97433.47;10324983;28;20962;-52
2023/07/06 13:26:13;;;;;;;8.73;5.68;;;;;;;30.75;41.60;97440.53;10326307;28;20079;-51
2023/07/06 13:31:14;;;;;;;7.88;5.55;;;;;;;30.60;42.08;97428.47;10317130;28;20057;-51
2023/07/06 13:36:16;;;;;;;6.40;4.78;;;;;;;30.46;42.90;97427.00;10320658;28;20121;-51
2023/07/06 13:41:23;;;;;;;6.03;5.20;;;;;;;30.04;41.42;97432.38;10330012;28;20121;-52
2023/07/06 13:46:22;;;;;;;8.52;4.80;;;;;;;29.85;42.59;97411.72;10324207;28;20061;-53
2023/07/06 13:51:21;;;;;;;7.47;5.10;;;;;;;29.77;43.00;97411.50;10320197;28;20113;-51
2023/07/06 13:56:20;;;;;;;6.93;5.10;;;;;;;29.71;43.45;97414.69;10327493;28;20060;-52
2023/07/06 14:01:21;;;;;;;5.95;5.07;;;;;;;29.81;44.55;97404.03;10331343;28;20109;-53
2023/07/06 14:06:20;;;;;;;5.63;5.00;;;;;;;29.68;44.12;97398.91;10325293;28;20113;-51
2023/07/06 14:11:19;;;;;;;7.22;5.22;;;;;;;29.57;44.29;97383.75;10326359;28;20060;-52
2023/07/06 14:16:18;;;;;;;9.70;6.20;;;;;;;29.89;45.04;97397.09;10324402;28;20700;-52
2023/07/06 14:21:22;;;;;;;7.05;6.03;;;;;;;29.91;44.91;97400.50;10330295;28;20551;-52
2023/07/06 14:26:21;;;;;;;7.88;5.50;;;;;;;29.87;46.68;97411.59;10329773;28;20124;-51
2023/07/06 14:31:20;;;;;;;6.20;4.82;;;;;;;29.24;49.76;97416.81;10327202;28;20112;-51
2023/07/06 14:36:19;;;;;;;10.35;5.70;;;;;;;29.12;50.84;97417.81;10325891;28;20545;-49
2023/07/06 14:41:18;;;;;;;7.75;5.25;;;;;;;29.27;50.28;97421.91;10325008;28;20583;-51
2023/07/06 14:46:17;;;;;;;9.18;5.55;;;;;;;29.01;51.38;97416.03;10325716;28;20123;-52
2023/07/06 14:51:18;;;;;;;9.13;5.57;;;;;;;29.11;51.33;97410.75;10327261;28;20106;-50
2023/07/06 14:56:18;;;;;;;7.63;5.68;;;;;;;29.28;51.16;97392.41;10328344;28;20833;-51
2023/07/06 15:01:17;;;;;;;9.40;6.45;;;;;;;29.27;51.01;97424.59;10327229;28;20515;-52
2023/07/06 15:06:17;;;;;;;8.90;5.90;;;;;;;29.02;51.20;97423.91;10327526;28;20033;-51
2023/07/06 15:11:16;;;;;;;9.35;6.35;;;;;;;28.78;51.74;97426.75;10327512;28;20151;-49
2023/07/06 15:16:15;;;;;;;8.38;5.53;;;;;;;29.03;52.23;97414.91;10327614;28;20132;-49
2023/07/06 15:21:18;;;;;;;7.40;6.20;;;;;;;29.46;50.49;97406.06;10326376;28;20033;-51
2023/07/06 15:26:17;;;;;;;7.97;6.10;;;;;;;29.68;50.15;97409.59;10327379;28;20509;-51
2023/07/06 15:31:16;;;;;;;6.85;5.20;;;;;;;29.68;48.58;97398.91;10326689;28;20064;-51
2023/07/06 15:36:15;;;;;;;5.90;5.28;;;;;;;29.80;48.52;97410.38;10325533;28;20115;-51
2023/07/06 15:41:19;;;;;;;5.97;4.88;;;;;;;29.36;49.62;97405.13;10325655;28;20179;-52
2023/07/06 15:46:18;;;;;;;6.75;5.25;;;;;;;29.39;50.01;97412.91;10326655;28;20083;-50
2023/07/06 15:51:17;;;;;;;6.85;5.60;;;;;;;29.05;49.54;97407.63;10325341;28;20042;-48
2023/07/06 15:56:16;;;;;;;8.95;6.13;;;;;;;29.04;49.62;97419.31;10325853;28;20040;-52
2023/07/06 16:01:15;;;;;;;7.40;5.65;;;;;;;29.08;49.37;97402.03;10325183;28;20490;-51
2023/07/06 16:06:19;;;;;;;10.57;6.53;;;;;;;29.02;50.66;97409.72;10325182;28;20548;-48
2023/07/06 16:11:20;;;;;;;5.93;5.32;;;;;;;28.73;50.46;97410.25;10324644;28;20487;-50
2023/07/06 16:16:19;;;;;;;8.27;5.85;;;;;;;28.94;50.50;97410.31;10324288;28;20069;-49
2023/07/06 16:21:18;;;;;;;6.70;6.00;;;;;;;29.11;49.98;97419.66;10323958;28;20145;-52
2023/07/06 16:26:20;;;;;;;10.00;5.57;;;;;;;28.95;49.89;97424.56;10324104;28;20092;-52
2023/07/06 16:31:20;;;;;;;6.75;5.93;;;;;;;28.27;51.21;97437.03;10324601;28;20116;-53
2023/07/06 16:36:19;;;;;;;6.63;5.43;;;;;;;28.03;51.96;97413.94;10324478;28;20515;-52
2023/07/06 16:41:18;;;;;;;11.55;5.78;;;;;;;28.29;51.86;97433.31;10322627;28;20045;-53
2023/07/06 16:46:17;;;;;;;9.65;6.65;;;;;;;28.07;53.30;97428.78;10324135;28;20077;-49
2023/07/06 16:51:16;;;;;;;8.68;6.53;;;;;;;28.01;53.07;97438.06;10323454;28;20026;-49
2023/07/06 16:56:16;;;;;;;9.10;6.43;;;;;;;27.97;54.40;97451.75;10324089;28;20491;-52
2023/07/06 17:01:15;;;;;;;11.15;7.25;;;;;;;28.04;56.66;97448.50;10324497;28;20112;-51
2023/07/06 17:06:14;;;;;;;10.80;7.13;;;;;;;28.16;57.27;97451.22;10323267;28;20064;-49
2023/07/06 17:11:13;;;;;;;10.80;7.15;;;;;;;28.05;57.41;97446.69;10324587;28;20499;-52
2023/07/06 17:16:12;;;;;;;8.30;6.20;;;;;;;28.01;57.76;97450.56;10332581;28;20069;-52
2023/07/06 17:21:11;;;;;;;8.70;7.10;;;;;;;27.68;58.72;97425.50;10329420;28;20132;-52
2023/07/06 17:26:10;;;;;;;10.32;7.07;;;;;;;27.71;59.13;97459.94;10331089;28;20084;-49
2023/07/06 17:31:12;;;;;;;12.27;6.85;;;;;;;27.56;59.98;97456.56;10330980;28;20033;-52
2023/07/06 17:36:11;;;;;;;9.27;7.03;;;;;;;27.37;60.76;97465.06;10330941;28;20053;-51
2023/07/06 17:41:11;;;;;;;10.85;7.25;;;;;;;27.22;61.55;97450.22;10330606;28;20088;-48
2023/07/06 17:46:10;;;;;;;9.20;7.93;;;;;;;27.07;62.32;97464.66;10330936;28;20072;-50
2023/07/06 17:51:09;;;;;;;12.93;7.93;;;;;;;26.67;63.35;97443.53;10330525;28;20108;-52
2023/07/06 17:56:08;;;;;;;9.85;7.90;;;;;;;26.49;64.07;97443.06;10329476;28;20104;-52
2023/07/06 18:01:08;;;;;;;10.45;7.13;;;;;;;26.44;64.48;97480.63;10330684;28;20056;-52
2023/07/06 18:06:07;;;;;;;11.63;7.68;;;;;;;26.28;65.47;97477.34;10330244;28;20072;-52
2023/07/06 18:11:06;;;;;;;10.55;8.05;;;;;;;26.06;66.29;97475.25;10329796;28;20136;-51
2023/07/06 18:16:05;;;;;;;11.48;8.25;;;;;;;25.77;68.48;97479.91;10328796;28;20042;-52
2023/07/06 18:21:06;;;;;;;9.20;7.80;;;;;;;25.52;69.06;97489.44;10329567;28;20041;-51
2023/07/06 18:26:05;;;;;;;9.40;8.07;;;;;;;25.27;69.99;97493.72;10329340;28;20065;-50
2023/07/06 18:31:04;;;;;;;12.30;8.70;;;;;;;25.05;71.33;97496.91;10329543;28;20053;-51
2023/07/06 18:36:04;;;;;;;9.73;8.43;;;;;;;24.80;72.58;97489.63;10328387;28;20476;-51
2023/07/06 18:41:03;;;;;;;12.20;8.27;;;;;;;24.48;73.23;97500.44;10328655;28;20615;-52
2023/07/06 18:46:02;;;;;;;9.85;8.68;;;;;;;24.28;73.45;97498.13;10328470;28;20525;-52
2023/07/06 18:51:01;;;;;;;12.25;9.20;;;;;;;24.00;74.12;97489.16;10328402;28;20472;-51
2023/07/06 18:56:00;;;;;;;10.93;9.20;;;;;;;23.93;75.07;97510.81;10327734;28;20116;-52
2023/07/06 19:00:59;;;;;;;14.05;9.57;;;;;;;23.77;75.79;97502.91;10328259;28;20599;-52
2023/07/06 19:05:58;;;;;;;11.27;8.85;;;;;;;23.67;76.15;97525.59;10327261;28;20083;-50
2023/07/06 19:11:03;;;;;;;12.30;8.52;;;;;;;23.61;76.15;97535.59;10328116;28;20052;-52
2023/07/06 19:16:02;;;;;;;11.50;8.10;;;;;;;23.54;76.41;97534.25;10327133;28;20108;-50
2023/07/06 19:21:01;;;;;;;10.32;8.48;;;;;;;23.47;76.61;97537.31;10327177;28;20527;-49
2023/07/06 19:26:01;;;;;;;12.77;9.13;;;;;;;23.33;78.24;97540.72;10326580;28;20481;-52
2023/07/06 19:31:00;;;;;;;11.90;8.95;;;;;;;23.19;79.31;97534.41;10326615;28;20074;-51
2023/07/06 19:35:59;;;;;;;12.25;8.90;;;;;;;23.12;80.18;97532.19;10326668;28;20037;-51
2023/07/06 19:40:58;;;;;;;12.23;10.07;;;;;;;23.02;80.80;97513.28;10326733;28;20045;-51
2023/07/06 19:46:01;;;;;;;10.65;8.82;;;;;;;22.92;80.76;97520.88;10325510;28;20121;-50
2023/07/06 19:51:02;;;;;;;11.57;9.48;;;;;;;22.82;81.71;97514.41;10326053;28;20505;-51
2023/07/06 19:56:01;;;;;;;10.30;8.90;;;;;;;22.76;81.64;97522.66;10325686;28;20065;-51
2023/07/06 20:01:00;;;;;;;14.18;9.02;;;;;;;22.64;81.38;97520.66;10325417;28;20075;-50
2023/07/06 20:06:00;;;;;;;12.13;8.05;;;;;;;22.55;81.59;97530.78;10325285;28;20029;-51
2023/07/06 20:11:00;;;;;;;11.40;8.60;;;;;;;22.53;81.44;97531.78;10325364;28;20084;-48
2023/07/06 20:16:00;;;;;;;11.30;9.30;;;;;;;22.26;81.88;97510.31;10324794;28;20060;-52
2023/07/06 20:20:59;;;;;;;15.70;10.00;;;;;;;22.36;82.67;97548.53;10325053;28;20077;-48
2023/07/06 20:25:58;;;;;;;13.35;10.63;;;;;;;22.22;83.48;97546.59;10325294;28;20083;-50
2023/07/06 20:31:02;;;;;;;15.43;10.95;;;;;;;22.04;83.73;97523.75;10324624;28;20047;-51
2023/07/06 20:36:05;;;;;;;14.23;11.50;;;;;;;22.12;84.81;97545.38;10326052;28;20540;-52
2023/07/06 20:41:05;;;;;;;12.88;10.90;;;;;;;22.03;86.50;97567.81;10325015;28;20471;-51
2023/07/06 20:46:04;;;;;;;15.63;11.75;;;;;;;21.98;86.50;97559.25;10323531;28;20121;-52
2023/07/06 20:51:03;;;;;;;15.40;11.82;;;;;;;21.85;87.05;97561.66;10324172;28;20033;-51
2023/07/06 20:56:02;;;;;;;11.68;9.90;;;;;;;21.75;87.15;97561.25;10323545;28;20041;-54
2023/07/06 21:01:00;;;;;;;13.10;9.95;;;;;;;21.74;86.97;97556.06;10323969;28;20111;-52
2023/07/06 21:06:01;;;;;;;13.60;10.90;;;;;;;21.68;87.55;97561.63;10323953;28;20036;-52
2023/07/06 21:10:59;;;;;;;14.48;10.68;;;;;;;21.59;88.08;97570.00;10323854;28;20061;-51
2023/07/06 21:16:03;;;;;;;15.25;11.25;;;;;;;21.42;89.38;97581.38;10323312;28;20045;-50
2023/07/06 21:21:02;;;;;;;14.98;10.70;;;;;;;20.84;90.03;97495.22;10324074;28;20475;-49
2023/07/06 21:26:01;;;;;;;12.85;10.95;;;;;;;21.27;90.59;97593.53;10323476;28;20128;-51
2023/07/06 21:31:00;;;;;;;13.60;10.70;;;;;;;21.11;91.71;97594.19;10323430;28;20033;-51
2023/07/06 21:35:59;;;;;;;14.30;10.98;;;;;;;21.01;91.48;97589.38;10323207;28;20530;-51
2023/07/06 21:40:59;;;;;;;14.88;11.52;;;;;;;20.99;91.25;97594.75;10322863;28;20570;-50
2023/07/06 21:45:59;;;;;;;16.17;11.35;;;;;;;20.91;91.28;97596.88;10322475;28;20129;-49
2023/07/06 21:50:58;;;;;;;16.30;11.93;;;;;;;20.83;91.20;97602.50;10324099;28;20072;-50
2023/07/06 21:55:58;;;;;;;15.73;12.15;;;;;;;20.70;92.33;97596.94;10322215;28;20069;-52
2023/07/06 22:00:57;;;;;;;16.00;12.43;;;;;;;20.70;92.49;97602.19;10330783;28;20065;-50
2023/07/06 22:06:05;;;;;;;17.02;12.07;;;;;;;20.68;92.28;97609.31;10329675;28;20033;-51
2023/07/06 22:11:04;;;;;;;16.27;11.80;;;;;;;20.64;92.66;97594.56;10330256;28;20073;-51
2023/07/06 22:16:04;;;;;;;16.70;12.25;;;;;;;20.61;92.48;97588.53;10328529;28;20064;-49
2023/07/06 22:21:03;;;;;;;16.42;12.18;;;;;;;20.53;92.91;97574.84;10329515;28;20080;-52
2023/07/06 22:26:04;;;;;;;16.00;12.68;;;;;;;20.49;93.06;97585.53;10329720;28;20141;-49
2023/07/06 22:31:07;;;;;;;17.83;13.20;;;;;;;20.46;93.73;97590.06;10328823;28;20067;-51
2023/07/06 22:36:09;;;;;;;18.98;14.43;;;;;;;20.33;93.57;97575.69;10328130;28;20072;-52
2023/07/06 22:41:09;;;;;;;18.38;14.52;;;;;;;20.38;94.04;97595.66;10328505;28;20417;-51
2023/07/06 22:46:09;;;;;;;21.25;13.38;;;;;;;20.37;94.73;97596.56;10327709;28;20417;-50
2023/07/06 22:51:08;;;;;;;20.65;14.73;;;;;;;20.37;94.39;97601.84;10328983;28;20109;-50
2023/07/06 22:56:07;;;;;;;17.02;14.10;;;;;;;20.33;94.68;97610.81;10327541;28;20129;-51
2023/07/06 23:01:22;;;;;;;17.75;15.07;;;;;;;20.34;94.54;97606.41;10327775;28;20458;-52
2023/07/06 23:06:22;;;;;;;19.05;14.70;;;;;;;20.35;95.15;97597.56;10327273;28;20591;-51
2023/07/06 23:11:24;;;;;;;22.65;15.90;;;;;;;20.27;95.13;97596.09;10326644;28;20060;-52
2023/07/06 23:16:25;;;;;;;27.85;16.75;;;;;;;20.09;95.42;97581.06;10325878;28;20136;-50
2023/07/06 23:21:25;;;;;;;17.83;14.25;;;;;;;20.23;95.78;97599.78;10326744;28;20537;-51